Time;durP1;ratioP1;P1;durP2;ratioP2;P2;SDS_P1;SDS_P2;PMS_P1;PMS_P2;Temp;Humidity;BMP_temperature;BMP_pressure;BME280_temperature;BME280_humidity;BME280_pressure;Samples;Min_cycle;Max_cycle;Signal;HPM_P1;HPM_P2
2023/03/22 00:00:38;;;;;;;14.60;7.03;;;;;;;;;;5046396;28;20079;-63
2023/03/22 00:03:05;;;;;;;11.57;6.65;;;;;;;;;;5033620;28;20545;-64
2023/03/22 00:05:31;;;;;;;12.02;6.57;;;;;;;;;;5032457;28;20744;-63
2023/03/22 00:07:58;;;;;;;13.63;6.93;;;;;;;;;;5027169;28;20045;-63
2023/03/22 00:10:24;;;;;;;11.00;6.10;;;;;;;;;;5046346;28;20132;-63
2023/03/22 00:12:51;;;;;;;10.82;6.15;;;;;;;;;;5050595;28;20449;-63
2023/03/22 00:15:18;;;;;;;8.70;5.97;;;;;;;;;;5042371;28;20041;-63
2023/03/22 00:17:44;;;;;;;13.45;6.20;;;;;;;;;;5050062;28;20099;-63
2023/03/22 00:20:11;;;;;;;13.65;6.25;;;;;;;;;;5051805;28;20107;-63
2023/03/22 00:22:38;;;;;;;12.75;7.35;;;;;;;;;;5045949;28;20425;-63
2023/03/22 00:25:05;;;;;;;10.93;4.90;;;;;;;;;;5020483;28;20037;-63
2023/03/22 00:27:31;;;;;;;13.55;5.20;;;;;;;;;;5050537;28;20055;-63
2023/03/22 00:29:58;;;;;;;10.75;5.13;;;;;;;;;;5049788;28;20458;-63
2023/03/22 00:32:24;;;;;;;8.18;4.45;;;;;;;;;;5043498;28;20419;-63
2023/03/22 00:34:50;;;;;;;11.70;5.35;;;;;;;;;;5031668;28;20040;-63
2023/03/22 00:37:16;;;;;;;12.35;4.40;;;;;;;;;;5037989;28;20116;-64
2023/03/22 00:39:43;;;;;;;10.18;4.82;;;;;;;;;;5049110;28;20454;-63
2023/03/22 00:42:09;;;;;;;10.35;4.47;;;;;;;;;;5047905;28;20040;-63
2023/03/22 00:44:35;;;;;;;9.52;3.95;;;;;;;;;;5045251;28;20095;-64
2023/03/22 00:47:01;;;;;;;13.55;4.82;;;;;;;;;;5030527;28;20095;-63
2023/03/22 00:49:29;;;;;;;6.13;3.90;;;;;;;;;;5049633;28;20075;-63
2023/03/22 00:51:55;;;;;;;11.57;3.65;;;;;;;;;;5031748;28;20059;-63
2023/03/22 00:54:21;;;;;;;6.80;3.70;;;;;;;;;;5048158;28;20099;-63
2023/03/22 00:56:48;;;;;;;15.10;4.30;;;;;;;;;;5054488;28;20476;-64
2023/03/22 00:59:15;;;;;;;6.75;4.13;;;;;;;;;;5046445;28;20151;-63
2023/03/22 01:01:42;;;;;;;12.82;4.18;;;;;;;;;;5032366;28;20041;-63
2023/03/22 01:04:08;;;;;;;14.15;3.78;;;;;;;;;;5047811;28;20048;-63
2023/03/22 01:06:35;;;;;;;7.55;3.58;;;;;;;;;;5049922;28;20052;-63
2023/03/22 01:09:01;;;;;;;7.28;3.70;;;;;;;;;;5046132;28;20127;-63
2023/03/22 01:11:27;;;;;;;11.32;3.33;;;;;;;;;;5046250;28;20124;-63
2023/03/22 01:13:54;;;;;;;5.25;2.90;;;;;;;;;;5039315;28;20079;-63
2023/03/22 01:16:21;;;;;;;4.88;2.45;;;;;;;;;;5049320;28;20487;-63
2023/03/22 01:18:47;;;;;;;8.60;3.17;;;;;;;;;;5027423;28;20041;-63
2023/03/22 01:21:13;;;;;;;7.90;3.42;;;;;;;;;;5049654;28;20129;-63
2023/03/22 01:23:39;;;;;;;14.88;3.80;;;;;;;;;;5031025;28;20487;-63
2023/03/22 01:26:06;;;;;;;7.45;3.13;;;;;;;;;;5029521;28;20033;-63
2023/03/22 01:28:32;;;;;;;9.52;3.05;;;;;;;;;;5027848;28;20033;-64
2023/03/22 01:31:01;;;;;;;10.63;3.13;;;;;;;;;;5048037;28;20033;-63
2023/03/22 01:33:27;;;;;;;7.25;2.65;;;;;;;;;;5047371;28;20049;-63
2023/03/22 01:35:54;;;;;;;10.88;3.00;;;;;;;;;;5050436;28;20041;-63
2023/03/22 01:38:21;;;;;;;8.45;3.17;;;;;;;;;;5046137;28;20124;-63
2023/03/22 01:40:47;;;;;;;9.77;3.15;;;;;;;;;;5047956;28;20045;-63
2023/03/22 01:43:14;;;;;;;13.77;3.70;;;;;;;;;;5028201;28;20132;-63
2023/03/22 01:45:50;;;;;;;9.23;3.05;;;;;;;;;;5047058;28;20041;-63
2023/03/22 01:48:24;;;;;;;7.05;3.08;;;;;;;;;;5044196;28;20151;-63
2023/03/22 01:50:57;;;;;;;6.45;2.92;;;;;;;;;;5045959;28;20052;-64
2023/03/22 01:53:25;;;;;;;10.98;4.70;;;;;;;;;;5028633;28;20044;-63
2023/03/22 01:55:52;;;;;;;9.63;2.97;;;;;;;;;;5051198;28;20549;-64
2023/03/22 01:58:19;;;;;;;12.80;2.40;;;;;;;;;;5029808;28;20045;-63
2023/03/22 02:00:46;;;;;;;8.90;3.45;;;;;;;;;;5046241;28;20044;-64
2023/03/22 02:03:15;;;;;;;10.77;2.97;;;;;;;;;;5031265;28;20495;-63
2023/03/22 02:05:41;;;;;;;6.93;2.97;;;;;;;;;;5048629;28;20103;-63
2023/03/22 02:08:07;;;;;;;8.30;3.00;;;;;;;;;;5050445;28;20086;-63
2023/03/22 02:10:33;;;;;;;6.45;3.42;;;;;;;;;;5048480;28;20041;-63
2023/03/22 02:13:15;;;;;;;6.35;2.45;;;;;;;;;;5048973;28;21169;-63
2023/03/22 02:15:41;;;;;;;8.60;3.70;;;;;;;;;;5044489;28;20044;-63
2023/03/22 02:18:21;;;;;;;12.70;3.78;;;;;;;;;;5048252;28;20043;-63
2023/03/22 02:21:06;;;;;;;11.60;3.22;;;;;;;;;;5046062;28;20120;-63
2023/03/22 02:23:50;;;;;;;10.27;3.15;;;;;;;;;;5048543;28;20041;-63
2023/03/22 02:26:38;;;;;;;6.85;2.10;;;;;;;;;;5050424;28;20106;-63
2023/03/22 02:29:07;;;;;;;6.82;2.55;;;;;;;;;;5047762;28;20098;-63
2023/03/22 02:31:52;;;;;;;12.13;3.03;;;;;;;;;;5029479;28;20569;-63
2023/03/22 02:34:37;;;;;;;11.77;3.03;;;;;;;;;;5047128;28;20426;-63
2023/03/22 02:37:21;;;;;;;7.82;3.17;;;;;;;;;;5047498;28;20657;-63
2023/03/22 02:39:51;;;;;;;8.93;2.70;;;;;;;;;;5022982;28;20428;-63
2023/03/22 02:42:18;;;;;;;14.52;2.95;;;;;;;;;;5042852;28;20059;-63
2023/03/22 02:44:50;;;;;;;11.77;2.78;;;;;;;;;;5047445;28;20033;-63
2023/03/22 02:47:33;;;;;;;8.75;2.70;;;;;;;;;;5049701;28;20495;-63
2023/03/22 02:50:08;;;;;;;6.97;3.33;;;;;;;;;;5020722;28;20041;-63
2023/03/22 02:53:06;;;;;;;10.05;2.88;;;;;;;;;;5047992;28;20047;-63
2023/03/22 02:55:37;;;;;;;6.72;3.42;;;;;;;;;;5013369;28;20045;-64
2023/03/22 02:58:07;;;;;;;11.05;3.15;;;;;;;;;;5042722;28;20148;-64
2023/03/22 03:00:37;;;;;;;10.20;3.50;;;;;;;;;;5044700;28;20499;-68
2023/03/22 03:03:10;;;;;;;12.15;4.00;;;;;;;;;;5044188;28;20036;-64
2023/03/22 03:05:36;;;;;;;;;;;;;;;;;;5045690;28;20098;-64
2023/03/22 03:08:02;;;;;;;11.10;2.90;;;;;;;;;;5044130;28;19923;-63
2023/03/22 03:10:28;;;;;;;10.60;2.97;;;;;;;;;;5020789;28;20041;-63
2023/03/22 03:12:54;;;;;;;7.00;2.85;;;;;;;;;;5026692;28;20372;-63
2023/03/22 03:15:22;;;;;;;13.30;3.70;;;;;;;;;;5044338;28;20347;-63
2023/03/22 03:18:00;;;;;;;8.65;3.30;;;;;;;;;;5028099;28;20120;-63
2023/03/22 03:20:41;;;;;;;7.15;2.88;;;;;;;;;;5039642;28;20359;-64
2023/03/22 03:23:17;;;;;;;10.25;2.80;;;;;;;;;;5025367;28;20077;-63
2023/03/22 03:25:46;;;;;;;10.57;3.03;;;;;;;;;;5041739;28;20076;-63
2023/03/22 03:28:15;;;;;;;10.02;2.92;;;;;;;;;;5046076;28;20122;-63
2023/03/22 03:30:48;;;;;;;11.07;3.55;;;;;;;;;;5026445;28;20044;-63
2023/03/22 03:33:17;;;;;;;10.88;3.15;;;;;;;;;;5023760;28;20069;-63
2023/03/22 03:35:47;;;;;;;14.30;3.90;;;;;;;;;;5039700;28;20072;-63
2023/03/22 03:38:18;;;;;;;13.00;3.10;;;;;;;;;;5040614;28;20045;-63
2023/03/22 03:40:49;;;;;;;9.55;2.15;;;;;;;;;;5026479;28;20079;-63
2023/03/22 03:43:16;;;;;;;9.43;3.88;;;;;;;;;;5046578;28;20170;-63
2023/03/22 03:45:42;;;;;;;7.35;2.63;;;;;;;;;;5044968;28;20060;-63
2023/03/22 03:48:11;;;;;;;14.70;3.90;;;;;;;;;;5031567;28;20044;-64
2023/03/22 03:50:37;;;;;;;11.40;2.95;;;;;;;;;;5043849;28;20098;-63
2023/03/22 03:53:03;;;;;;;9.13;3.15;;;;;;;;;;5046826;28;20045;-64
2023/03/22 03:55:30;;;;;;;10.25;3.30;;;;;;;;;;5049336;28;20041;-64
2023/03/22 03:57:56;;;;;;;7.22;2.72;;;;;;;;;;5034753;28;20088;-63
2023/03/22 04:00:22;;;;;;;11.52;3.72;;;;;;;;;;5052561;28;20576;-63
2023/03/22 04:02:48;;;;;;;13.80;3.85;;;;;;;;;;5047606;28;20037;-63
2023/03/22 04:05:15;;;;;;;6.68;3.03;;;;;;;;;;5046334;28;20115;-63
2023/03/22 04:07:41;;;;;;;6.07;2.85;;;;;;;;;;5047475;28;20076;-63
2023/03/22 04:10:07;;;;;;;7.35;3.15;;;;;;;;;;5044739;28;20487;-63
2023/03/22 04:12:34;;;;;;;10.65;3.13;;;;;;;;;;5046181;28;20139;-64
2023/03/22 04:15:00;;;;;;;7.28;3.13;;;;;;;;;;5031885;28;20107;-64
2023/03/22 04:17:30;;;;;;;9.07;2.65;;;;;;;;;;5046626;28;20065;-63
2023/03/22 04:19:57;;;;;;;6.18;2.92;;;;;;;;;;5032261;28;20078;-63
2023/03/22 04:22:24;;;;;;;5.32;2.42;;;;;;;;;;5048062;28;20128;-64
2023/03/22 04:24:50;;;;;;;8.98;3.50;;;;;;;;;;5042963;28;20051;-64
2023/03/22 04:27:16;;;;;;;8.80;3.22;;;;;;;;;;5044656;28;20037;-63
2023/03/22 04:29:49;;;;;;;5.57;2.50;;;;;;;;;;5031248;28;20043;-63
2023/03/22 04:32:17;;;;;;;;;;;;;;;;;;5050381;28;20156;-63
2023/03/22 04:34:46;;;;;;;10.85;3.25;;;;;;;;;;5055507;28;20295;-64
2023/03/22 04:37:12;;;;;;;13.52;3.70;;;;;;;;;;5045869;28;20081;-64
2023/03/22 04:39:39;;;;;;;16.55;3.88;;;;;;;;;;5031225;28;20040;-63
2023/03/22 04:42:05;;;;;;;9.15;4.15;;;;;;;;;;5033053;28;20388;-63
2023/03/22 04:44:31;;;;;;;12.27;3.88;;;;;;;;;;5031941;28;20262;-63
2023/03/22 04:46:57;;;;;;;15.05;4.90;;;;;;;;;;5050718;28;20041;-64
2023/03/22 04:49:25;;;;;;;11.35;4.20;;;;;;;;;;5045622;28;20585;-63
2023/03/22 04:51:51;;;;;;;7.65;4.18;;;;;;;;;;5042854;28;20041;-63
2023/03/22 04:54:17;;;;;;;13.75;4.40;;;;;;;;;;5042722;28;20043;-63
2023/03/22 04:56:44;;;;;;;8.32;4.15;;;;;;;;;;5037196;28;20387;-64
2023/03/22 04:59:10;;;;;;;13.57;4.88;;;;;;;;;;5049591;28;20036;-64
2023/03/22 05:01:36;;;;;;;9.85;4.55;;;;;;;;;;5040694;28;20045;-63
2023/03/22 05:04:02;;;;;;;11.32;4.28;;;;;;;;;;5030587;28;20048;-63
2023/03/22 05:06:32;;;;;;;8.63;5.07;;;;;;;;;;5032496;28;20037;-63
2023/03/22 05:09:01;;;;;;;11.93;4.35;;;;;;;;;;5049376;28;20103;-63
2023/03/22 05:11:27;;;;;;;11.07;4.70;;;;;;;;;;5049305;28;20447;-63
2023/03/22 05:13:54;;;;;;;9.68;4.93;;;;;;;;;;5049468;28;20063;-64
2023/03/22 05:16:20;;;;;;;10.13;5.55;;;;;;;;;;5049675;28;20130;-63
2023/03/22 05:18:46;;;;;;;11.60;5.43;;;;;;;;;;5031253;28;20231;-63
2023/03/22 05:21:14;;;;;;;8.02;5.50;;;;;;;;;;5052706;28;20106;-63
2023/03/22 05:23:41;;;;;;;11.77;5.80;;;;;;;;;;5045321;28;20045;-63
2023/03/22 05:26:09;;;;;;;10.35;5.95;;;;;;;;;;5047899;28;20039;-64
2023/03/22 05:28:36;;;;;;;13.43;5.60;;;;;;;;;;5044517;28;20374;-63
2023/03/22 05:31:02;;;;;;;8.55;5.75;;;;;;;;;;5034088;28;20080;-63
2023/03/22 05:33:28;;;;;;;13.65;7.15;;;;;;;;;;5051003;28;20033;-64
2023/03/22 05:35:55;;;;;;;11.65;6.00;;;;;;;;;;5049612;28;20077;-64
2023/03/22 05:38:24;;;;;;;11.75;6.55;;;;;;;;;;5048293;28;20396;-64
2023/03/22 05:40:50;;;;;;;14.18;7.82;;;;;;;;;;5049196;28;20112;-64
2023/03/22 05:43:16;;;;;;;15.02;7.45;;;;;;;;;;5047110;28;20453;-64
2023/03/22 05:45:44;;;;;;;15.13;7.13;;;;;;;;;;5048726;28;20045;-64
2023/03/22 05:48:11;;;;;;;11.52;6.43;;;;;;;;;;5045966;28;20053;-65
2023/03/22 05:50:37;;;;;;;15.32;7.72;;;;;;;;;;5049307;28;20401;-65
2023/03/22 05:53:03;;;;;;;18.02;7.78;;;;;;;;;;5029985;28;20045;-64
2023/03/22 05:55:30;;;;;;;16.88;7.75;;;;;;;;;;5049053;28;20040;-64
2023/03/22 05:57:57;;;;;;;15.70;7.05;;;;;;;;;;5048197;28;20033;-64
2023/03/22 06:00:24;;;;;;;14.73;7.50;;;;;;;;;;5049217;28;20036;-64
2023/03/22 06:03:01;;;;;;;13.07;7.38;;;;;;;;;;5047669;28;20155;-65
2023/03/22 06:05:28;;;;;;;13.75;7.47;;;;;;;;;;5027781;28;20071;-65
2023/03/22 06:07:54;;;;;;;14.32;7.07;;;;;;;;;;5048439;28;20053;-63
2023/03/22 06:10:21;;;;;;;18.17;8.05;;;;;;;;;;5046682;28;20036;-63
2023/03/22 06:12:47;;;;;;;15.25;7.30;;;;;;;;;;5046231;28;20053;-62
2023/03/22 06:15:14;;;;;;;18.65;8.35;;;;;;;;;;5031551;28;20073;-62
2023/03/22 06:17:41;;;;;;;14.77;7.68;;;;;;;;;;5037940;28;20505;-63
2023/03/22 06:20:10;;;;;;;17.30;7.55;;;;;;;;;;5044255;28;20519;-63
2023/03/22 06:22:37;;;;;;;14.77;7.82;;;;;;;;;;5046492;28;20536;-63
2023/03/22 06:25:04;;;;;;;16.75;8.38;;;;;;;;;;5045833;28;20517;-63
2023/03/22 06:27:30;;;;;;;15.57;9.23;;;;;;;;;;5024490;28;20037;-63
2023/03/22 06:29:56;;;;;;;16.98;9.25;;;;;;;;;;5042019;28;20100;-64
2023/03/22 06:32:23;;;;;;;16.73;9.05;;;;;;;;;;5044544;28;20044;-63
2023/03/22 06:34:50;;;;;;;16.05;9.00;;;;;;;;;;5047102;28;20033;-62
2023/03/22 06:37:16;;;;;;;15.15;8.85;;;;;;;;;;5042355;28;20034;-63
2023/03/22 06:39:42;;;;;;;17.40;8.90;;;;;;;;;;5046568;28;20118;-63
2023/03/22 06:42:09;;;;;;;18.98;10.27;;;;;;;;;;5047995;28;20051;-62
2023/03/22 06:44:35;;;;;;;17.63;9.25;;;;;;;;;;5041637;28;20037;-63
2023/03/22 06:47:02;;;;;;;11.90;8.82;;;;;;;;;;5029413;28;20033;-63
2023/03/22 06:49:28;;;;;;;18.42;8.93;;;;;;;;;;5038830;28;20327;-62
2023/03/22 06:51:54;;;;;;;16.42;8.82;;;;;;;;;;5027525;28;20058;-62
2023/03/22 06:54:20;;;;;;;16.15;9.65;;;;;;;;;;5030037;28;20094;-62
2023/03/22 06:56:46;;;;;;;19.38;9.63;;;;;;;;;;5037463;28;21100;-62
2023/03/22 06:59:13;;;;;;;16.23;11.00;;;;;;;;;;5016315;28;20041;-63
2023/03/22 07:01:39;;;;;;;14.23;9.52;;;;;;;;;;5042399;28;20120;-63
2023/03/22 07:04:05;;;;;;;19.20;9.60;;;;;;;;;;5039504;28;20049;-62
2023/03/22 07:06:31;;;;;;;13.82;8.98;;;;;;;;;;5041286;28;20363;-62
2023/03/22 07:08:57;;;;;;;17.90;10.38;;;;;;;;;;5029659;28;20074;-63
2023/03/22 07:11:25;;;;;;;15.10;9.52;;;;;;;;;;5037669;28;20038;-62
2023/03/22 07:13:52;;;;;;;22.13;10.07;;;;;;;;;;5040751;28;20041;-63
2023/03/22 07:16:18;;;;;;;16.13;9.50;;;;;;;;;;5047151;28;20487;-62
2023/03/22 07:18:45;;;;;;;20.60;8.93;;;;;;;;;;5044672;28;20068;-63
2023/03/22 07:21:12;;;;;;;14.20;8.70;;;;;;;;;;5047344;28;20360;-63
2023/03/22 07:23:38;;;;;;;17.23;8.95;;;;;;;;;;5046341;28;20048;-63
2023/03/22 07:26:04;;;;;;;17.35;9.23;;;;;;;;;;5018025;28;20071;-63
2023/03/22 07:28:30;;;;;;;13.60;8.32;;;;;;;;;;5016085;28;20042;-63
2023/03/22 07:31:04;;;;;;;15.02;8.48;;;;;;;;;;5050426;28;20045;-62
2023/03/22 07:33:30;;;;;;;15.85;8.63;;;;;;;;;;5042766;28;20056;-63
2023/03/22 07:35:56;;;;;;;13.68;8.23;;;;;;;;;;5051648;28;20041;-63
2023/03/22 07:38:22;;;;;;;19.88;10.13;;;;;;;;;;5044910;28;20095;-62
2023/03/22 07:40:53;;;;;;;19.20;7.50;;;;;;;;;;5034783;28;20048;-62
2023/03/22 07:43:19;;;;;;;20.20;9.10;;;;;;;;;;5012443;28;20129;-64
2023/03/22 07:45:45;;;;;;;14.60;7.72;;;;;;;;;;5049740;28;20564;-63
2023/03/22 07:48:12;;;;;;;15.82;7.40;;;;;;;;;;5029534;28;20052;-62
2023/03/22 07:50:38;;;;;;;17.95;7.45;;;;;;;;;;5032201;28;20543;-62
2023/03/22 07:53:04;;;;;;;12.88;6.93;;;;;;;;;;5046558;28;20539;-63
2023/03/22 07:55:30;;;;;;;14.43;7.40;;;;;;;;;;5053730;28;20033;-63
2023/03/22 07:57:56;;;;;;;14.57;6.97;;;;;;;;;;5050884;28;20115;-63
2023/03/22 08:00:22;;;;;;;12.60;6.57;;;;;;;;;;5049155;28;20529;-62
2023/03/22 08:02:49;;;;;;;13.25;6.90;;;;;;;;;;5049276;28;20045;-63
2023/03/22 08:05:15;;;;;;;12.70;6.40;;;;;;;;;;5018711;28;20044;-63
2023/03/22 08:07:41;;;;;;;10.18;5.38;;;;;;;;;;5033847;28;20462;-63
2023/03/22 08:10:07;;;;;;;10.27;5.65;;;;;;;;;;5049625;28;20120;-63
2023/03/22 08:12:34;;;;;;;12.00;6.55;;;;;;;;;;5046455;28;20543;-63
2023/03/22 08:15:00;;;;;;;13.63;5.35;;;;;;;;;;5030919;28;20082;-62
2023/03/22 08:17:26;;;;;;;17.70;6.45;;;;;;;;;;5046373;28;20439;-63
2023/03/22 08:19:55;;;;;;;11.32;5.20;;;;;;;;;;5047241;28;20025;-63
2023/03/22 08:22:24;;;;;;;14.40;5.43;;;;;;;;;;5050940;28;20437;-62
2023/03/22 08:24:54;;;;;;;12.32;5.13;;;;;;;;;;5052230;28;20459;-62
2023/03/22 08:27:20;;;;;;;9.35;5.68;;;;;;;;;;5029524;28;20060;-63
2023/03/22 08:29:47;;;;;;;15.00;5.93;;;;;;;;;;5017319;28;20245;-63
2023/03/22 08:32:13;;;;;;;13.15;5.75;;;;;;;;;;5031021;28;20074;-62
2023/03/22 08:34:40;;;;;;;9.63;5.25;;;;;;;;;;5039037;28;20045;-62
2023/03/22 08:37:07;;;;;;;12.18;6.53;;;;;;;;;;5042619;28;20084;-63
2023/03/22 08:39:34;;;;;;;10.80;5.47;;;;;;;;;;5033592;28;20073;-62
2023/03/22 08:42:00;;;;;;;8.40;5.18;;;;;;;;;;5049374;28;20128;-62
2023/03/22 08:44:26;;;;;;;9.57;5.38;;;;;;;;;;5050209;28;20127;-63
2023/03/22 08:46:53;;;;;;;10.52;5.93;;;;;;;;;;5049614;28;20036;-63
2023/03/22 08:49:19;;;;;;;8.75;5.18;;;;;;;;;;5043638;28;20126;-63
2023/03/22 08:51:45;;;;;;;9.13;5.20;;;;;;;;;;5043889;28;20048;-62
2023/03/22 08:54:11;;;;;;;13.55;5.35;;;;;;;;;;5048526;28;20033;-63
2023/03/22 08:56:38;;;;;;;18.23;6.88;;;;;;;;;;5044533;28;20029;-62
2023/03/22 08:59:05;;;;;;;11.02;5.55;;;;;;;;;;5049619;28;20033;-63
2023/03/22 09:01:31;;;;;;;11.20;5.75;;;;;;;;;;5046955;28;20099;-62
2023/03/22 09:03:57;;;;;;;12.45;5.47;;;;;;;;;;5035769;28;20033;-63
2023/03/22 09:06:25;;;;;;;11.88;5.85;;;;;;;;;;5048549;28;20120;-62
2023/03/22 09:08:51;;;;;;;12.98;5.80;;;;;;;;;;5044472;28;20063;-63
2023/03/22 09:11:18;;;;;;;11.30;5.95;;;;;;;;;;5043305;28;20029;-61
2023/03/22 09:13:45;;;;;;;8.73;4.97;;;;;;;;;;5048464;28;20053;-62
2023/03/22 09:16:11;;;;;;;11.60;4.78;;;;;;;;;;5036498;28;20032;-61
2023/03/22 09:18:38;;;;;;;11.43;4.78;;;;;;;;;;5050953;28;20041;-62
2023/03/22 09:21:06;;;;;;;9.43;4.65;;;;;;;;;;5043460;28;20132;-62
2023/03/22 09:23:33;;;;;;;15.02;6.65;;;;;;;;;;5047625;28;20192;-61
2023/03/22 09:26:00;;;;;;;12.27;5.00;;;;;;;;;;5031769;28;20041;-62
2023/03/22 09:28:27;;;;;;;9.65;4.05;;;;;;;;;;5031182;28;20037;-62
2023/03/22 09:30:53;;;;;;;13.48;5.35;;;;;;;;;;5051340;28;20087;-61
2023/03/22 09:33:19;;;;;;;10.63;5.63;;;;;;;;;;5046339;28;20048;-62
2023/03/22 09:35:46;;;;;;;10.60;4.47;;;;;;;;;;5046881;28;20033;-61
2023/03/22 09:38:12;;;;;;;11.93;4.60;;;;;;;;;;5044405;28;20731;-62
2023/03/22 09:41:04;;;;;;;13.65;5.25;;;;;;;;;;5046709;28;20060;-62
2023/03/22 09:43:36;;;;;;;10.43;4.28;;;;;;;;;;5046700;28;20033;-62
2023/03/22 09:46:05;;;;;;;8.85;4.88;;;;;;;;;;5050247;28;20505;-61
2023/03/22 09:48:33;;;;;;;8.80;5.32;;;;;;;;;;5047889;28;20549;-62
2023/03/22 09:51:00;;;;;;;11.75;4.03;;;;;;;;;;5030397;28;20565;-62
2023/03/22 09:53:27;;;;;;;14.95;4.82;;;;;;;;;;5048276;28;20049;-62
2023/03/22 09:56:11;;;;;;;14.32;5.40;;;;;;;;;;5043253;28;20047;-62
2023/03/22 09:58:37;;;;;;;10.57;5.70;;;;;;;;;;5044706;28;20529;-62
2023/03/22 10:01:13;;;;;;;10.57;4.90;;;;;;;;;;5047449;28;20052;-62
2023/03/22 10:03:58;;;;;;;12.63;4.93;;;;;;;;;;5040567;28;20524;-62
2023/03/22 10:06:25;;;;;;;12.48;5.22;;;;;;;;;;5041681;28;20079;-62
2023/03/22 10:09:10;;;;;;;8.88;4.40;;;;;;;;;;5042416;28;20036;-62
2023/03/22 10:11:55;;;;;;;11.00;5.20;;;;;;;;;;5029767;28;20116;-62
2023/03/22 10:14:33;;;;;;;7.32;4.00;;;;;;;;;;5046463;28;20423;-62
2023/03/22 10:17:04;;;;;;;15.55;5.95;;;;;;;;;;5027455;28;20475;-62
2023/03/22 10:19:33;;;;;;;16.13;4.82;;;;;;;;;;5039243;28;20122;-63
2023/03/22 10:22:01;;;;;;;10.13;4.93;;;;;;;;;;5030156;28;20061;-62
2023/03/22 10:24:29;;;;;;;9.25;5.10;;;;;;;;;;5031507;28;20060;-62
2023/03/22 10:26:55;;;;;;;7.88;4.10;;;;;;;;;;5043968;28;20049;-62
2023/03/22 10:29:40;;;;;;;15.70;5.20;;;;;;;;;;5045977;28;20037;-62
2023/03/22 10:32:17;;;;;;;11.50;4.43;;;;;;;;;;5041117;28;20372;-62
2023/03/22 10:34:44;;;;;;;9.35;4.05;;;;;;;;;;5045600;28;20052;-62
2023/03/22 10:37:15;;;;;;;12.98;4.82;;;;;;;;;;5047440;28;20059;-63
2023/03/22 10:39:46;;;;;;;9.70;4.40;;;;;;;;;;5051582;28;20036;-62
2023/03/22 10:42:14;;;;;;;12.98;4.40;;;;;;;;;;5048689;28;20387;-62
2023/03/22 10:44:47;;;;;;;13.18;4.80;;;;;;;;;;5045231;28;20122;-62
2023/03/22 10:47:14;;;;;;;7.88;4.85;;;;;;;;;;5045229;28;20514;-62
2023/03/22 10:49:53;;;;;;;9.77;4.78;;;;;;;;;;5045264;28;21130;-62
2023/03/22 10:52:38;;;;;;;9.52;4.07;;;;;;;;;;5002160;28;20089;-62
2023/03/22 10:55:08;;;;;;;9.95;4.38;;;;;;;;;;5046901;28;20449;-62
2023/03/22 10:57:34;;;;;;;9.70;4.47;;;;;;;;;;5045924;28;20068;-62
2023/03/22 11:00:07;;;;;;;9.27;4.95;;;;;;;;;;5046743;28;20055;-62
2023/03/22 11:02:33;;;;;;;12.48;5.28;;;;;;;;;;5045674;28;20108;-62
2023/03/22 11:05:00;;;;;;;12.73;5.45;;;;;;;;;;5048051;28;20039;-62
2023/03/22 11:07:42;;;;;;;16.50;5.25;;;;;;;;;;5042758;28;20065;-62
2023/03/22 11:10:08;;;;;;;13.27;4.68;;;;;;;;;;5044030;28;20045;-62
2023/03/22 11:12:42;;;;;;;15.10;5.75;;;;;;;;;;5045167;28;20045;-62
2023/03/22 11:15:20;;;;;;;10.77;3.90;;;;;;;;;;5049133;28;20078;-62
2023/03/22 11:17:46;;;;;;;9.35;5.13;;;;;;;;;;5053036;28;20044;-62
2023/03/22 11:20:16;;;;;;;9.82;4.85;;;;;;;;;;5036559;28;20053;-62
2023/03/22 11:22:43;;;;;;;9.57;5.35;;;;;;;;;;5013659;28;20368;-62
2023/03/22 11:25:15;;;;;;;11.70;4.38;;;;;;;;;;5025777;28;20041;-62
2023/03/22 11:27:55;;;;;;;10.38;4.80;;;;;;;;;;5025934;28;20041;-62
2023/03/22 11:30:28;;;;;;;10.65;4.65;;;;;;;;;;5020563;28;20064;-62
2023/03/22 11:33:03;;;;;;;6.35;4.03;;;;;;;;;;5028813;28;20100;-62
2023/03/22 11:35:30;;;;;;;7.75;4.00;;;;;;;;;;5027589;28;20120;-62
2023/03/22 11:37:56;;;;;;;11.82;5.28;;;;;;;;;;5002691;28;20265;-62
2023/03/22 11:40:24;;;;;;;11.60;5.25;;;;;;;;;;5021999;28;20095;-62
2023/03/22 11:42:55;;;;;;;8.55;4.20;;;;;;;;;;5024295;28;20037;-62
2023/03/22 11:45:30;;;;;;;8.70;4.75;;;;;;;;;;5024741;28;20104;-62
2023/03/22 11:48:05;;;;;;;10.05;4.47;;;;;;;;;;5031273;28;20034;-62
2023/03/22 11:50:34;;;;;;;8.23;4.68;;;;;;;;;;5028583;28;20045;-62
2023/03/22 11:53:03;;;;;;;7.13;4.03;;;;;;;;;;5036162;28;20041;-62
2023/03/22 11:55:30;;;;;;;9.88;4.32;;;;;;;;;;5035431;28;20496;-62
2023/03/22 11:57:57;;;;;;;10.20;5.00;;;;;;;;;;5008634;28;20041;-62
2023/03/22 12:00:26;;;;;;;7.10;4.25;;;;;;;;;;5031041;28;20043;-62
2023/03/22 12:03:12;;;;;;;8.75;4.70;;;;;;;;;;5003989;28;20124;-62
2023/03/22 12:05:40;;;;;;;16.55;5.85;;;;;;;;;;5027699;28;20050;-62
2023/03/22 12:08:15;;;;;;;11.77;5.03;;;;;;;;;;5024048;28;20037;-62
2023/03/22 12:10:43;;;;;;;8.48;4.50;;;;;;;;;;5026096;28;20073;-62
2023/03/22 12:13:13;;;;;;;12.80;5.53;;;;;;;;;;5032576;28;20096;-62
2023/03/22 12:15:47;;;;;;;8.95;4.95;;;;;;;;;;5028947;28;20049;-62
2023/03/22 12:18:16;;;;;;;11.35;4.90;;;;;;;;;;5027342;28;20046;-62
2023/03/22 12:20:48;;;;;;;9.80;5.50;;;;;;;;;;5022215;28;20051;-62
2023/03/22 12:23:16;;;;;;;11.13;5.28;;;;;;;;;;5044567;28;20534;-62
2023/03/22 12:25:45;;;;;;;8.05;4.93;;;;;;;;;;5012456;28;20042;-62
2023/03/22 12:28:15;;;;;;;13.50;5.47;;;;;;;;;;5044402;28;20519;-62
2023/03/22 12:30:48;;;;;;;11.07;5.75;;;;;;;;;;5040548;28;20124;-62
2023/03/22 12:33:23;;;;;;;10.60;6.03;;;;;;;;;;5044597;28;20060;-62
2023/03/22 12:35:51;;;;;;;10.82;5.75;;;;;;;;;;5048567;28;20091;-62
2023/03/22 12:38:23;;;;;;;13.27;5.43;;;;;;;;;;5043342;28;20029;-62
2023/03/22 12:40:51;;;;;;;10.95;5.63;;;;;;;;;;5045187;28;20041;-62
2023/03/22 12:43:22;;;;;;;8.70;5.85;;;;;;;;;;5053736;28;20076;-62
2023/03/22 12:45:52;;;;;;;7.90;5.38;;;;;;;;;;5053028;28;20045;-62
2023/03/22 12:48:32;;;;;;;13.00;5.63;;;;;;;;;;5050079;28;20384;-62
2023/03/22 12:51:04;;;;;;;9.65;5.93;;;;;;;;;;5050201;28;20048;-62
2023/03/22 12:53:41;;;;;;;14.75;5.78;;;;;;;;;;5050076;28;20055;-62
2023/03/22 12:56:12;;;;;;;12.93;6.10;;;;;;;;;;5038085;28;20548;-62
2023/03/22 12:58:38;;;;;;;9.55;5.60;;;;;;;;;;5037051;28;20208;-62
2023/03/22 13:01:18;;;;;;;9.77;5.70;;;;;;;;;;5051777;28;20049;-63
2023/03/22 13:03:46;;;;;;;10.63;6.38;;;;;;;;;;5053094;28;20048;-61
2023/03/22 13:06:32;;;;;;;13.98;6.63;;;;;;;;;;5046592;28;20046;-62
2023/03/22 13:09:15;;;;;;;10.38;6.53;;;;;;;;;;5044068;28;20398;-62
2023/03/22 13:11:49;;;;;;;9.50;6.07;;;;;;;;;;5025811;28;20123;-62
2023/03/22 13:14:33;;;;;;;9.23;6.53;;;;;;;;;;5048250;28;20067;-61
2023/03/22 13:17:00;;;;;;;14.07;6.80;;;;;;;;;;5046128;28;20025;-61
2023/03/22 13:19:32;;;;;;;17.92;7.75;;;;;;;;;;5049257;28;20242;-62
2023/03/22 13:22:18;;;;;;;9.35;5.45;;;;;;;;;;5015592;28;20061;-62
2023/03/22 13:25:22;;;;;;;9.98;5.93;;;;;;;;;;4994112;28;20056;-62
2023/03/22 13:27:48;;;;;;;13.15;5.95;;;;;;;;;;4988835;28;20056;-62
2023/03/22 13:30:22;;;;;;;7.82;6.25;;;;;;;;;;5031256;28;20130;-61
2023/03/22 13:33:02;;;;;;;7.95;6.35;;;;;;;;;;5023769;28;20569;-62
2023/03/22 13:35:49;;;;;;;9.90;6.05;;;;;;;;;;5033469;28;20037;-62
2023/03/22 13:38:45;;;;;;;12.05;6.80;;;;;;;;;;5027072;28;20033;-61
2023/03/22 13:41:22;;;;;;;14.15;7.10;;;;;;;;;;5001163;28;20132;-62
2023/03/22 13:43:49;;;;;;;9.35;6.63;;;;;;;;;;5026580;28;20049;-61
2023/03/22 13:46:21;;;;;;;13.68;7.28;;;;;;;;;;5021876;28;20087;-62
2023/03/22 13:48:47;;;;;;;10.40;6.05;;;;;;;;;;5013556;28;20535;-62
2023/03/22 13:51:24;;;;;;;14.40;7.95;;;;;;;;;;5025736;28;20280;-62
2023/03/22 13:53:54;;;;;;;10.10;6.90;;;;;;;;;;5024877;28;20053;-62
2023/03/22 13:56:47;;;;;;;10.80;7.65;;;;;;;;;;5011194;28;20069;-61
2023/03/22 13:59:18;;;;;;;15.13;7.55;;;;;;;;;;5026405;28;20093;-61
2023/03/22 14:01:50;;;;;;;20.27;7.38;;;;;;;;;;5023739;28;20037;-61
2023/03/22 14:04:21;;;;;;;9.00;6.53;;;;;;;;;;5027182;28;20484;-62
2023/03/22 14:07:05;;;;;;;11.10;7.85;;;;;;;;;;5020590;28;20493;-62
2023/03/22 14:09:52;;;;;;;11.63;7.55;;;;;;;;;;5001954;28;20041;-62
2023/03/22 14:12:20;;;;;;;11.05;7.38;;;;;;;;;;5030552;28;20045;-62
2023/03/22 14:14:50;;;;;;;14.73;7.07;;;;;;;;;;5029898;28;20033;-62
2023/03/22 14:17:19;;;;;;;12.60;7.45;;;;;;;;;;5006131;28;20057;-62
2023/03/22 14:19:46;;;;;;;13.07;6.93;;;;;;;;;;5024917;28;20044;-62
2023/03/22 14:22:17;;;;;;;9.45;6.32;;;;;;;;;;5022950;28;20463;-62
2023/03/22 14:24:45;;;;;;;13.57;7.00;;;;;;;;;;5045701;28;20059;-62
2023/03/22 14:27:16;;;;;;;11.38;7.30;;;;;;;;;;5043242;28;20076;-62
2023/03/22 14:29:43;;;;;;;9.73;6.97;;;;;;;;;;5028468;28;20041;-62
2023/03/22 14:32:14;;;;;;;16.02;7.45;;;;;;;;;;5042619;28;20048;-62
2023/03/22 14:34:41;;;;;;;10.88;7.93;;;;;;;;;;5024214;28;20056;-62
2023/03/22 14:37:11;;;;;;;11.90;8.65;;;;;;;;;;5036104;28;20041;-62
2023/03/22 14:39:39;;;;;;;14.73;9.20;;;;;;;;;;5036207;28;20050;-62
2023/03/22 14:42:07;;;;;;;14.70;8.88;;;;;;;;;;5040209;28;20535;-62
2023/03/22 14:44:39;;;;;;;13.27;9.10;;;;;;;;;;5046291;28;20513;-62
2023/03/22 14:47:14;;;;;;;13.95;8.90;;;;;;;;;;5045931;28;20124;-62